Western Springs, IL (60558)

4:24 AM CDT on March 29, 2015 (GMT -0500)
Ridgewood | | Change Station
CLOSE
Current Station
Personal Weather Station
Location: Western Springs, IL
Elevation: 655 ft
Nearby Weather Stations
Active Advisory: Special Statement

Elev 655 ft 41.79 °N, 87.90 °W | Updated 4 minutes ago

Partly Cloudy
Partly Cloudy
28.0 °F
Feels Like 24 °F
N
3.8
Wind Variable Wind from South
Gusts 4.5 mph

Today
High -- | Low -- °F
--% Chance of Precip.
Yesterday
High -- | Low -- °F
Precip. -- in
6:39 AM 7:13 PM
Waxing Gibbous, 70% visible
Pressure 30.23 in
Visibility 10.0 miles
Clouds Scattered Clouds 18000 ft
Windchill 24 °F
Dew Point 11 °F
Humidity 48%
Rainfall 0.00 in
Snow Depth Not available.
UV 0 out of 12
Pollen 3.40 out of 12
Air Quality Not available.
Flu Activity Not available.
METAR KMDW 290853Z 17008KT 10SM SCT180 M01/M10 A3019 RMK AO2 SLP236 T10111100 58027

More Conditions Fewer Conditions

Pressure 30.23 in
Visibility 10.0 miles
Clouds Scattered Clouds 18000 ft
Windchill 24 °F
Dew Point 11 °F
Humidity 48%
Rainfall 0.00 in
Snow Depth Not available.
UV 0 out of 12
Pollen 3.40 out of 12
Air Quality Not available.
Flu Activity Not available.
METAR KMDW 290853Z 17008KT 10SM SCT180 M01/M10 A3019 RMK AO2 SLP236 T10111100 58027

More Conditions Fewer Conditions

10-Day Weather Forecast

Almanac

Astronomy

Mar. 29, 2015 Rise Set
Actual Time
Civil Twilight
Nautical Twilight
Astronomical Twilight
Moon
Length of Visible Light
Length of Day
Tomorrow will be .
, % of the Moon is Illuminated

Today's Extremes

State Highs State Lows

Community

WunderPhotos

Upload Photos

1,809,187 photos uploaded!

WunderBlogs® & News

Nearby

Air Quality

  Air Quality AQ Index Pollutant
Not available.

Snow Depth

Station Depth Elevation

Earthquake Activity

City Distance Mag. Time & Date
Minimum magnitude displayed is 2.5.

Coastal Water Temperatures

Place Temperature

Stations

Nearby Weather Stations

Station Location Temp. Windchill Dew Point Humidity Wind Precip. Elev Updated Type
                   
Special Statement
Statement as of 3:43 AM CDT on March 29, 2015

... Gusty winds today...

Moderately strong winds will develop across northern Illinois and
Northwest Indiana by mid morning and last through mid afternoon
before tapering. Sustained southwest winds of 20 to 30 mph with
gusts to 40 mph are expected. Winds of this magnitude can make
driving difficult... especially for high profile vehicles. Be sure
to secure any loose items left outside.


Mtf/bmd